sensor_id;sensor_type;location;lat;lon;timestamp;pressure;altitude;pressure_sealevel;temperature;humidity
49055;BME280;35405;52.344;14.530;2023-02-14T06:58:13;102877.47;;;3.69;100.00
49055;BME280;35405;52.344;14.530;2023-02-14T07:00:39;102892.19;;;3.73;100.00
49055;BME280;35405;52.344;14.530;2023-02-14T07:03:04;102884.78;;;3.75;100.00
49055;BME280;35405;52.344;14.530;2023-02-14T07:05:29;102882.53;;;3.78;100.00
49055;BME280;35405;52.344;14.530;2023-02-14T07:07:55;102885.94;;;3.87;100.00
49055;BME280;35405;52.344;14.530;2023-02-14T07:10:21;102890.16;;;3.96;100.00
49055;BME280;35405;52.344;14.530;2023-02-14T07:12:46;102884.59;;;3.98;100.00
49055;BME280;35405;52.344;14.530;2023-02-14T07:15:11;102894.53;;;3.97;100.00
49055;BME280;35405;52.344;14.530;2023-02-14T07:17:38;102888.13;;;3.98;100.00
49055;BME280;35405;52.344;14.530;2023-02-14T07:20:04;102895.38;;;3.98;100.00
49055;BME280;35405;52.344;14.530;2023-02-14T07:22:30;102902.84;;;4.02;100.00
49055;BME280;35405;52.344;14.530;2023-02-14T07:24:56;102897.66;;;4.01;100.00
49055;BME280;35405;52.344;14.530;2023-02-14T07:27:21;102894.19;;;4.07;100.00
49055;BME280;35405;52.344;14.530;2023-02-14T07:29:46;102898.59;;;4.15;100.00
49055;BME280;35405;52.344;14.530;2023-02-14T07:32:11;102896.81;;;4.22;100.00
49055;BME280;35405;52.344;14.530;2023-02-14T07:34:36;102895.00;;;4.29;100.00
49055;BME280;35405;52.344;14.530;2023-02-14T07:37:01;102888.56;;;4.30;100.00
49055;BME280;35405;52.344;14.530;2023-02-14T07:39:27;102900.81;;;4.32;100.00
49055;BME280;35405;52.344;14.530;2023-02-14T07:41:52;102901.09;;;4.38;100.00
49055;BME280;35405;52.344;14.530;2023-02-14T07:44:17;102899.47;;;4.43;100.00
49055;BME280;35405;52.344;14.530;2023-02-14T07:46:43;102903.44;;;4.47;100.00
49055;BME280;35405;52.344;14.530;2023-02-14T07:49:08;102901.00;;;4.52;100.00
49055;BME280;35405;52.344;14.530;2023-02-14T07:51:33;102898.34;;;4.59;100.00
49055;BME280;35405;52.344;14.530;2023-02-14T07:53:58;102898.78;;;4.63;100.00
49055;BME280;35405;52.344;14.530;2023-02-14T07:56:23;102900.84;;;4.61;100.00
49055;BME280;35405;52.344;14.530;2023-02-14T07:58:48;102904.97;;;4.63;100.00
49055;BME280;35405;52.344;14.530;2023-02-14T08:01:14;102907.69;;;4.63;100.00
49055;BME280;35405;52.344;14.530;2023-02-14T08:03:39;102908.19;;;4.73;100.00
49055;BME280;35405;52.344;14.530;2023-02-14T08:06:05;102911.75;;;4.80;100.00
49055;BME280;35405;52.344;14.530;2023-02-14T08:08:30;102908.22;;;4.80;100.00
49055;BME280;35405;52.344;14.530;2023-02-14T08:10:56;102909.72;;;4.89;100.00
49055;BME280;35405;52.344;14.530;2023-02-14T08:13:21;102912.41;;;4.89;100.00
49055;BME280;35405;52.344;14.530;2023-02-14T08:15:47;102915.72;;;4.85;100.00
49055;BME280;35405;52.344;14.530;2023-02-14T08:18:38;102908.91;;;4.89;100.00
49055;BME280;35405;52.344;14.530;2023-02-14T08:21:04;102921.97;;;4.92;100.00
49055;BME280;35405;52.344;14.530;2023-02-14T08:23:30;102914.97;;;4.97;100.00
49055;BME280;35405;52.344;14.530;2023-02-14T08:25:55;102916.72;;;5.12;100.00
49055;BME280;35405;52.344;14.530;2023-02-14T08:28:21;102929.84;;;5.28;100.00
49055;BME280;35405;52.344;14.530;2023-02-14T08:30:46;102928.63;;;5.31;100.00
49055;BME280;35405;52.344;14.530;2023-02-14T08:33:11;102925.69;;;5.32;100.00
49055;BME280;35405;52.344;14.530;2023-02-14T08:35:37;102927.81;;;5.37;100.00
49055;BME280;35405;52.344;14.530;2023-02-14T08:38:02;102925.28;;;5.35;100.00
49055;BME280;35405;52.344;14.530;2023-02-14T08:40:28;102929.47;;;5.38;100.00
49055;BME280;35405;52.344;14.530;2023-02-14T08:42:53;102933.22;;;5.43;100.00
49055;BME280;35405;52.344;14.530;2023-02-14T08:45:18;102936.94;;;5.36;100.00
49055;BME280;35405;52.344;14.530;2023-02-14T08:47:44;102937.38;;;5.39;100.00
49055;BME280;35405;52.344;14.530;2023-02-14T08:50:11;102940.28;;;5.44;100.00
49055;BME280;35405;52.344;14.530;2023-02-14T08:52:37;102939.94;;;5.54;100.00
49055;BME280;35405;52.344;14.530;2023-02-14T08:55:03;102948.22;;;5.59;100.00
49055;BME280;35405;52.344;14.530;2023-02-14T08:57:29;102944.53;;;5.67;100.00
49055;BME280;35405;52.344;14.530;2023-02-14T08:59:54;102943.28;;;5.63;100.00
49055;BME280;35405;52.344;14.530;2023-02-14T09:02:19;102946.41;;;5.66;100.00
49055;BME280;35405;52.344;14.530;2023-02-14T09:04:44;102941.25;;;5.78;100.00
49055;BME280;35405;52.344;14.530;2023-02-14T09:07:13;102944.56;;;5.80;100.00
49055;BME280;35405;52.344;14.530;2023-02-14T09:09:38;102945.44;;;5.87;100.00
49055;BME280;35405;52.344;14.530;2023-02-14T09:12:04;102939.41;;;5.92;100.00
49055;BME280;35405;52.344;14.530;2023-02-14T09:14:33;102943.41;;;6.03;100.00
49055;BME280;35405;52.344;14.530;2023-02-14T09:16:58;102940.53;;;6.17;100.00
49055;BME280;35405;52.344;14.530;2023-02-14T09:19:25;102945.72;;;6.32;100.00
49055;BME280;35405;52.344;14.530;2023-02-14T09:21:50;102955.72;;;6.32;100.00
49055;BME280;35405;52.344;14.530;2023-02-14T09:24:15;102950.31;;;6.32;100.00
49055;BME280;35405;52.344;14.530;2023-02-14T09:26:40;102950.50;;;6.30;100.00
49055;BME280;35405;52.344;14.530;2023-02-14T09:29:07;102952.59;;;6.35;100.00
49055;BME280;35405;52.344;14.530;2023-02-14T09:31:32;102957.78;;;6.36;100.00
49055;BME280;35405;52.344;14.530;2023-02-14T09:33:57;102958.41;;;6.45;100.00
49055;BME280;35405;52.344;14.530;2023-02-14T09:36:22;102959.25;;;6.59;100.00
49055;BME280;35405;52.344;14.530;2023-02-14T09:39:06;102955.50;;;6.67;100.00
49055;BME280;35405;52.344;14.530;2023-02-14T09:46:28;102959.44;;;6.64;100.00
49055;BME280;35405;52.344;14.530;2023-02-14T09:48:55;102957.16;;;6.54;100.00
49055;BME280;35405;52.344;14.530;2023-02-14T09:51:25;102962.75;;;6.53;100.00
49055;BME280;35405;52.344;14.530;2023-02-14T09:53:55;102958.41;;;6.58;100.00
49055;BME280;35405;52.344;14.530;2023-02-14T09:59:05;102965.50;;;6.59;100.00
49055;BME280;35405;52.344;14.530;2023-02-14T10:01:32;102952.56;;;6.55;100.00
49055;BME280;35405;52.344;14.530;2023-02-14T10:09:21;102964.44;;;6.67;100.00
49055;BME280;35405;52.344;14.530;2023-02-14T10:12:10;102959.88;;;6.74;100.00
49055;BME280;35405;52.344;14.530;2023-02-14T10:14:38;102949.25;;;6.66;100.00
49055;BME280;35405;52.344;14.530;2023-02-14T10:19:40;102951.56;;;6.62;100.00
49055;BME280;35405;52.344;14.530;2023-02-14T10:22:13;102935.75;;;6.59;100.00
49055;BME280;35405;52.344;14.530;2023-02-14T10:24:44;102952.19;;;6.38;100.00
49055;BME280;35405;52.344;14.530;2023-02-14T10:29:52;102945.09;;;6.57;100.00
49055;BME280;35405;52.344;14.530;2023-02-14T10:32:19;102940.09;;;6.40;100.00
49055;BME280;35405;52.344;14.530;2023-02-14T10:34:48;102938.03;;;6.56;100.00
49055;BME280;35405;52.344;14.530;2023-02-14T10:50:10;102935.94;;;6.58;100.00
49055;BME280;35405;52.344;14.530;2023-02-14T10:52:42;102930.94;;;6.75;100.00
49055;BME280;35405;52.344;14.530;2023-02-14T10:55:14;102935.88;;;6.91;100.00
49055;BME280;35405;52.344;14.530;2023-02-14T10:57:46;102933.16;;;6.98;100.00
49055;BME280;35405;52.344;14.530;2023-02-14T11:00:28;102936.28;;;7.08;100.00
49055;BME280;35405;52.344;14.530;2023-02-14T11:02:57;102931.81;;;7.33;100.00
49055;BME280;35405;52.344;14.530;2023-02-14T11:05:25;102934.91;;;7.44;100.00
49055;BME280;35405;52.344;14.530;2023-02-14T11:07:51;102927.03;;;7.36;100.00
49055;BME280;35405;52.344;14.530;2023-02-14T11:10:16;102924.13;;;7.30;100.00
49055;BME280;35405;52.344;14.530;2023-02-14T11:12:44;102920.84;;;7.15;100.00
49055;BME280;35405;52.344;14.530;2023-02-14T11:17:41;102924.66;;;7.46;100.00
49055;BME280;35405;52.344;14.530;2023-02-14T11:22:43;102922.97;;;7.51;100.00
49055;BME280;35405;52.344;14.530;2023-02-14T11:25:20;102912.63;;;7.42;100.00
49055;BME280;35405;52.344;14.530;2023-02-14T11:27:46;102912.38;;;7.50;100.00
49055;BME280;35405;52.344;14.530;2023-02-14T11:32:51;102903.34;;;7.63;100.00
49055;BME280;35405;52.344;14.530;2023-02-14T11:35:20;102903.34;;;7.63;100.00
49055;BME280;35405;52.344;14.530;2023-02-14T11:37:49;102907.13;;;7.55;100.00
49055;BME280;35405;52.344;14.530;2023-02-14T11:42:52;102911.13;;;7.52;100.00
49055;BME280;35405;52.344;14.530;2023-02-14T11:45:28;102897.34;;;7.54;100.00
49055;BME280;35405;52.344;14.530;2023-02-14T11:50:38;102897.88;;;7.38;100.00
49055;BME280;35405;52.344;14.530;2023-02-14T11:53:04;102897.88;;;7.38;100.00
49055;BME280;35405;52.344;14.530;2023-02-14T11:55:35;102895.97;;;7.38;100.00
49055;BME280;35405;52.344;14.530;2023-02-14T11:58:00;102890.34;;;7.40;100.00
49055;BME280;35405;52.344;14.530;2023-02-14T12:00:27;102899.16;;;7.28;100.00
49055;BME280;35405;52.344;14.530;2023-02-14T12:02:55;102894.53;;;7.36;100.00
49055;BME280;35405;52.344;14.530;2023-02-14T12:07:47;102894.13;;;7.32;100.00
49055;BME280;35405;52.344;14.530;2023-02-14T12:10:15;102885.75;;;7.47;100.00
49055;BME280;35405;52.344;14.530;2023-02-14T12:12:51;102886.16;;;7.44;100.00
49055;BME280;35405;52.344;14.530;2023-02-14T12:15:25;102878.06;;;7.44;100.00
49055;BME280;35405;52.344;14.530;2023-02-14T12:17:52;102877.63;;;7.47;100.00
49055;BME280;35405;52.344;14.530;2023-02-14T12:20:43;102880.56;;;7.39;100.00
49055;BME280;35405;52.344;14.530;2023-02-14T12:23:09;102873.50;;;7.38;100.00
49055;BME280;35405;52.344;14.530;2023-02-14T12:25:51;102882.41;;;7.45;100.00
49055;BME280;35405;52.344;14.530;2023-02-14T12:28:42;102882.59;;;7.50;100.00
49055;BME280;35405;52.344;14.530;2023-02-14T12:31:09;102873.34;;;7.26;100.00
49055;BME280;35405;52.344;14.530;2023-02-14T12:33:35;102871.22;;;7.35;100.00
49055;BME280;35405;52.344;14.530;2023-02-14T12:36:08;102862.25;;;7.41;100.00
49055;BME280;35405;52.344;14.530;2023-02-14T12:38:52;102867.63;;;7.47;100.00
49055;BME280;35405;52.344;14.530;2023-02-14T12:41:37;102870.78;;;7.38;100.00
49055;BME280;35405;52.344;14.530;2023-02-14T12:44:20;102861.56;;;7.45;100.00
49055;BME280;35405;52.344;14.530;2023-02-14T12:46:56;102856.53;;;7.55;100.00
49055;BME280;35405;52.344;14.530;2023-02-14T12:57:51;102836.09;;;7.60;100.00
49055;BME280;35405;52.344;14.530;2023-02-14T13:00:21;102841.28;;;7.61;100.00
49055;BME280;35405;52.344;14.530;2023-02-14T13:08:16;102831.72;;;7.20;100.00
49055;BME280;35405;52.344;14.530;2023-02-14T13:13:27;102826.50;;;6.74;100.00
49055;BME280;35405;52.344;14.530;2023-02-14T13:16:06;102818.41;;;6.67;100.00
49055;BME280;35405;52.344;14.530;2023-02-14T13:21:00;102818.31;;;6.29;100.00
49055;BME280;35405;52.344;14.530;2023-02-14T13:23:32;102810.00;;;6.24;100.00
49055;BME280;35405;52.344;14.530;2023-02-14T13:26:00;102805.19;;;6.19;100.00
49055;BME280;35405;52.344;14.530;2023-02-14T13:28:28;102804.19;;;6.07;100.00
49055;BME280;35405;52.344;14.530;2023-02-14T13:30:54;102806.22;;;5.91;100.00
49055;BME280;35405;52.344;14.530;2023-02-14T13:33:31;102800.22;;;5.76;100.00
49055;BME280;35405;52.344;14.530;2023-02-14T13:35:59;102795.41;;;5.65;100.00
49055;BME280;35405;52.344;14.530;2023-02-14T13:38:25;102795.00;;;5.61;100.00
49055;BME280;35405;52.344;14.530;2023-02-14T13:40:51;102799.34;;;5.49;100.00
49055;BME280;35405;52.344;14.530;2023-02-14T13:46:18;102786.66;;;5.30;100.00
49055;BME280;35405;52.344;14.530;2023-02-14T13:48:54;102786.84;;;5.21;100.00
49055;BME280;35405;52.344;14.530;2023-02-14T13:51:20;102788.72;;;5.21;100.00
49055;BME280;35405;52.344;14.530;2023-02-14T13:53:46;102778.94;;;5.20;100.00
49055;BME280;35405;52.344;14.530;2023-02-14T14:04:02;102771.47;;;5.15;100.00
49055;BME280;35405;52.344;14.530;2023-02-14T14:06:28;102780.16;;;5.11;100.00
49055;BME280;35405;52.344;14.530;2023-02-14T14:08:54;102780.81;;;5.13;100.00
49055;BME280;35405;52.344;14.530;2023-02-14T14:21:27;102774.53;;;4.99;100.00
49055;BME280;35405;52.344;14.530;2023-02-14T14:26:49;102766.66;;;4.97;100.00
49055;BME280;35405;52.344;14.530;2023-02-14T14:29:16;102767.88;;;4.95;100.00
49055;BME280;35405;52.344;14.530;2023-02-14T14:31:42;102768.31;;;4.98;100.00
49055;BME280;35405;52.344;14.530;2023-02-14T14:34:13;102767.47;;;4.98;100.00
49055;BME280;35405;52.344;14.530;2023-02-14T14:36:39;102762.28;;;4.96;100.00
49055;BME280;35405;52.344;14.530;2023-02-14T14:39:04;102765.59;;;4.92;100.00
49055;BME280;35405;52.344;14.530;2023-02-14T14:41:29;102765.56;;;4.85;100.00
49055;BME280;35405;52.344;14.530;2023-02-14T14:43:57;102764.94;;;4.83;100.00
49055;BME280;35405;52.344;14.530;2023-02-14T14:46:22;102759.31;;;4.78;100.00
49055;BME280;35405;52.344;14.530;2023-02-14T14:48:50;102758.69;;;4.76;100.00
49055;BME280;35405;52.344;14.530;2023-02-14T14:51:26;102762.38;;;4.68;100.00
49055;BME280;35405;52.344;14.530;2023-02-14T14:54:05;102752.84;;;4.66;100.00
49055;BME280;35405;52.344;14.530;2023-02-14T14:56:32;102751.78;;;4.60;100.00
49055;BME280;35405;52.344;14.530;2023-02-14T14:59:14;102750.75;;;4.61;100.00
49055;BME280;35405;52.344;14.530;2023-02-14T15:01:45;102750.75;;;4.61;100.00
49055;BME280;35405;52.344;14.530;2023-02-14T15:04:31;102752.63;;;4.61;100.00
49055;BME280;35405;52.344;14.530;2023-02-14T15:06:56;102737.69;;;4.58;100.00
49055;BME280;35405;52.344;14.530;2023-02-14T15:11:47;102746.56;;;4.52;100.00
49055;BME280;35405;52.344;14.530;2023-02-14T15:14:37;102733.06;;;4.45;100.00
49055;BME280;35405;52.344;14.530;2023-02-14T15:17:04;102739.22;;;4.39;100.00
49055;BME280;35405;52.344;14.530;2023-02-14T15:19:32;102740.03;;;4.33;100.00
49055;BME280;35405;52.344;14.530;2023-02-14T15:22:01;102731.53;;;4.29;100.00
49055;BME280;35405;52.344;14.530;2023-02-14T15:24:28;102716.59;;;4.27;100.00
49055;BME280;35405;52.344;14.530;2023-02-14T15:26:55;102727.97;;;4.22;100.00
49055;BME280;35405;52.344;14.530;2023-02-14T15:29:31;102719.47;;;4.19;100.00
49055;BME280;35405;52.344;14.530;2023-02-14T15:32:02;102722.16;;;4.19;100.00
49055;BME280;35405;52.344;14.530;2023-02-14T15:34:32;102718.38;;;4.13;100.00
49055;BME280;35405;52.344;14.530;2023-02-14T15:37:00;102716.28;;;4.08;100.00
49055;BME280;35405;52.344;14.530;2023-02-14T15:39:34;102713.97;;;4.05;100.00
49055;BME280;35405;52.344;14.530;2023-02-14T15:42:01;102703.81;;;4.01;100.00
49055;BME280;35405;52.344;14.530;2023-02-14T15:44:26;102702.34;;;3.98;100.00
49055;BME280;35405;52.344;14.530;2023-02-14T15:46:55;102701.91;;;3.95;100.00
49055;BME280;35405;52.344;14.530;2023-02-14T15:49:29;102703.53;;;3.89;100.00
49055;BME280;35405;52.344;14.530;2023-02-14T15:54:59;102697.63;;;3.72;100.00
49055;BME280;35405;52.344;14.530;2023-02-14T15:57:24;102700.91;;;3.67;100.00
49055;BME280;35405;52.344;14.530;2023-02-14T15:59:51;102697.13;;;3.62;100.00
49055;BME280;35405;52.344;14.530;2023-02-14T16:04:48;102691.63;;;3.49;100.00
49055;BME280;35405;52.344;14.530;2023-02-14T16:07:21;102698.03;;;3.48;100.00
49055;BME280;35405;52.344;14.530;2023-02-14T16:09:47;102696.97;;;3.42;100.00
49055;BME280;35405;52.344;14.530;2023-02-14T16:12:26;102693.00;;;3.38;100.00
49055;BME280;35405;52.344;14.530;2023-02-14T16:15:01;102696.81;;;3.22;100.00
49055;BME280;35405;52.344;14.530;2023-02-14T16:17:31;102693.97;;;3.09;100.00
49055;BME280;35405;52.344;14.530;2023-02-14T16:19:56;102710.03;;;3.02;100.00
49055;BME280;35405;52.344;14.530;2023-02-14T16:22:24;102695.34;;;2.98;100.00
49055;BME280;35405;52.344;14.530;2023-02-14T16:24:50;102690.25;;;2.88;100.00
49055;BME280;35405;52.344;14.530;2023-02-14T16:27:17;102702.72;;;2.74;100.00
49055;BME280;35405;52.344;14.530;2023-02-14T16:29:43;102700.53;;;2.63;100.00
49055;BME280;35405;52.344;14.530;2023-02-14T16:32:10;102693.97;;;2.51;100.00
49055;BME280;35405;52.344;14.530;2023-02-14T16:34:36;102696.75;;;2.43;100.00
49055;BME280;35405;52.344;14.530;2023-02-14T16:37:16;102697.22;;;2.32;100.00
49055;BME280;35405;52.344;14.530;2023-02-14T16:39:43;102695.41;;;2.17;100.00
49055;BME280;35405;52.344;14.530;2023-02-14T16:42:12;102701.69;;;2.10;100.00
49055;BME280;35405;52.344;14.530;2023-02-14T16:44:39;102699.44;;;1.98;100.00
49055;BME280;35405;52.344;14.530;2023-02-14T16:47:08;102700.38;;;1.91;100.00
49055;BME280;35405;52.344;14.530;2023-02-14T16:49:34;102698.06;;;1.88;100.00
49055;BME280;35405;52.344;14.530;2023-02-14T16:52:00;102691.22;;;1.85;100.00
49055;BME280;35405;52.344;14.530;2023-02-14T16:54:25;102684.81;;;1.71;100.00
49055;BME280;35405;52.344;14.530;2023-02-14T16:56:52;102689.09;;;1.66;100.00
49055;BME280;35405;52.344;14.530;2023-02-14T16:59:19;102691.47;;;1.60;100.00
49055;BME280;35405;52.344;14.530;2023-02-14T17:01:44;102687.47;;;1.56;100.00
49055;BME280;35405;52.344;14.530;2023-02-14T17:04:09;102692.72;;;1.50;100.00
49055;BME280;35405;52.344;14.530;2023-02-14T17:06:35;102692.16;;;1.40;100.00
49055;BME280;35405;52.344;14.530;2023-02-14T17:09:04;102688.88;;;1.29;100.00
49055;BME280;35405;52.344;14.530;2023-02-14T17:11:33;102691.19;;;1.18;100.00
49055;BME280;35405;52.344;14.530;2023-02-14T17:13:59;102685.31;;;1.14;100.00
49055;BME280;35405;52.344;14.530;2023-02-14T17:16:24;102689.38;;;1.10;100.00
49055;BME280;35405;52.344;14.530;2023-02-14T17:18:53;102687.78;;;1.01;100.00
49055;BME280;35405;52.344;14.530;2023-02-14T17:21:19;102675.44;;;0.91;100.00
49055;BME280;35405;52.344;14.530;2023-02-14T17:23:47;102676.53;;;0.82;100.00
49055;BME280;35405;52.344;14.530;2023-02-14T17:26:13;102689.25;;;0.80;100.00
49055;BME280;35405;52.344;14.530;2023-02-14T17:28:38;102688.09;;;0.75;100.00
49055;BME280;35405;52.344;14.530;2023-02-14T17:31:03;102681.44;;;0.71;100.00
49055;BME280;35405;52.344;14.530;2023-02-14T17:33:32;102673.28;;;0.64;100.00
49055;BME280;35405;52.344;14.530;2023-02-14T17:36:07;102683.88;;;0.57;100.00
49055;BME280;35405;52.344;14.530;2023-02-14T17:38:33;102680.41;;;0.49;100.00
49055;BME280;35405;52.344;14.530;2023-02-14T17:41:08;102677.41;;;0.43;100.00
49055;BME280;35405;52.344;14.530;2023-02-14T17:43:34;102678.09;;;0.37;100.00
49055;BME280;35405;52.344;14.530;2023-02-14T17:46:00;102678.81;;;0.31;100.00
49055;BME280;35405;52.344;14.530;2023-02-14T17:48:27;102679.16;;;0.28;100.00
49055;BME280;35405;52.344;14.530;2023-02-14T17:50:52;102671.28;;;0.27;100.00
49055;BME280;35405;52.344;14.530;2023-02-14T17:53:18;102672.81;;;0.21;100.00
49055;BME280;35405;52.344;14.530;2023-02-14T17:55:43;102668.31;;;0.21;100.00
49055;BME280;35405;52.344;14.530;2023-02-14T17:58:08;102668.47;;;0.20;100.00
49055;BME280;35405;52.344;14.530;2023-02-14T18:00:34;102662.81;;;0.15;100.00
49055;BME280;35405;52.344;14.530;2023-02-14T18:02:59;102665.19;;;0.10;100.00
49055;BME280;35405;52.344;14.530;2023-02-14T18:05:27;102655.00;;;0.05;100.00
49055;BME280;35405;52.344;14.530;2023-02-14T18:07:52;102660.19;;;-0.02;100.00
49055;BME280;35405;52.344;14.530;2023-02-14T18:10:18;102656.22;;;-0.06;100.00
49055;BME280;35405;52.344;14.530;2023-02-14T18:12:43;102657.72;;;-0.11;100.00
49055;BME280;35405;52.344;14.530;2023-02-14T18:15:08;102655.56;;;-0.16;100.00
49055;BME280;35405;52.344;14.530;2023-02-14T18:17:33;102657.94;;;-0.21;100.00
49055;BME280;35405;52.344;14.530;2023-02-14T18:19:59;102655.91;;;-0.19;100.00
49055;BME280;35405;52.344;14.530;2023-02-14T18:22:24;102651.03;;;-0.15;100.00
49055;BME280;35405;52.344;14.530;2023-02-14T18:24:51;102653.38;;;-0.12;100.00
49055;BME280;35405;52.344;14.530;2023-02-14T18:27:16;102659.41;;;-0.18;100.00
49055;BME280;35405;52.344;14.530;2023-02-14T18:29:42;102649.22;;;-0.23;100.00
49055;BME280;35405;52.344;14.530;2023-02-14T18:32:07;102649.38;;;-0.16;100.00
49055;BME280;35405;52.344;14.530;2023-02-14T18:34:34;102643.19;;;-0.17;100.00
49055;BME280;35405;52.344;14.530;2023-02-14T18:37:00;102651.41;;;-0.27;100.00
49055;BME280;35405;52.344;14.530;2023-02-14T18:39:26;102638.22;;;-0.36;100.00
49055;BME280;35405;52.344;14.530;2023-02-14T18:41:51;102642.94;;;-0.47;100.00
49055;BME280;35405;52.344;14.530;2023-02-14T18:44:17;102644.78;;;-0.55;100.00
49055;BME280;35405;52.344;14.530;2023-02-14T18:46:42;102637.59;;;-0.55;100.00
49055;BME280;35405;52.344;14.530;2023-02-14T18:49:07;102636.28;;;-0.51;100.00
49055;BME280;35405;52.344;14.530;2023-02-14T18:51:34;102630.91;;;-0.51;100.00
49055;BME280;35405;52.344;14.530;2023-02-14T18:54:01;102623.56;;;-0.49;100.00
49055;BME280;35405;52.344;14.530;2023-02-14T18:56:30;102612.56;;;-0.54;100.00
49055;BME280;35405;52.344;14.530;2023-02-14T18:59:09;102615.88;;;-0.52;100.00
49055;BME280;35405;52.344;14.530;2023-02-14T19:01:35;102610.88;;;-0.55;100.00
49055;BME280;35405;52.344;14.530;2023-02-14T19:04:01;102611.03;;;-0.48;100.00
49055;BME280;35405;52.344;14.530;2023-02-14T19:06:27;102614.84;;;-0.42;100.00
49055;BME280;35405;52.344;14.530;2023-02-14T19:08:53;102612.84;;;-0.40;100.00
49055;BME280;35405;52.344;14.530;2023-02-14T19:11:21;102606.81;;;-0.34;100.00
49055;BME280;35405;52.344;14.530;2023-02-14T19:13:51;102606.00;;;-0.35;100.00
49055;BME280;35405;52.344;14.530;2023-02-14T19:16:18;102606.81;;;-0.42;100.00
49055;BME280;35405;52.344;14.530;2023-02-14T19:18:43;102611.53;;;-0.44;100.00
49055;BME280;35405;52.344;14.530;2023-02-14T19:21:12;102596.34;;;-0.52;100.00
49055;BME280;35405;52.344;14.530;2023-02-14T19:23:38;102601.53;;;-0.59;100.00
49055;BME280;35405;52.344;14.530;2023-02-14T19:26:16;102602.88;;;-0.63;100.00
49055;BME280;35405;52.344;14.530;2023-02-14T19:28:42;102591.88;;;-0.60;100.00
49055;BME280;35405;52.344;14.530;2023-02-14T19:31:10;102589.84;;;-0.58;100.00
49055;BME280;35405;52.344;14.530;2023-02-14T19:33:37;102590.00;;;-0.59;100.00
49055;BME280;35405;52.344;14.530;2023-02-14T19:36:02;102589.53;;;-0.63;100.00
49055;BME280;35405;52.344;14.530;2023-02-14T19:38:29;102584.19;;;-0.63;100.00
49055;BME280;35405;52.344;14.530;2023-02-14T19:40:54;102572.28;;;-0.60;100.00
49055;BME280;35405;52.344;14.530;2023-02-14T19:43:23;102577.28;;;-0.57;100.00
49055;BME280;35405;52.344;14.530;2023-02-14T19:46:02;102582.97;;;-0.60;100.00
49055;BME280;35405;52.344;14.530;2023-02-14T19:48:27;102581.69;;;-0.73;100.00
49055;BME280;35405;52.344;14.530;2023-02-14T19:50:53;102577.88;;;-0.86;100.00
49055;BME280;35405;52.344;14.530;2023-02-14T19:53:18;102577.19;;;-0.97;100.00
49055;BME280;35405;52.344;14.530;2023-02-14T19:55:43;102575.72;;;-1.07;100.00
49055;BME280;35405;52.344;14.530;2023-02-14T19:58:09;102563.03;;;-1.13;100.00
49055;BME280;35405;52.344;14.530;2023-02-14T20:00:34;102564.03;;;-1.15;100.00
49055;BME280;35405;52.344;14.530;2023-02-14T20:03:01;102561.53;;;-1.24;100.00
49055;BME280;35405;52.344;14.530;2023-02-14T20:05:26;102565.22;;;-1.17;100.00
49055;BME280;35405;52.344;14.530;2023-02-14T20:07:55;102553.34;;;-1.15;100.00
49055;BME280;35405;52.344;14.530;2023-02-14T20:10:21;102550.84;;;-1.24;100.00
49055;BME280;35405;52.344;14.530;2023-02-14T20:12:46;102546.84;;;-1.28;100.00
49055;BME280;35405;52.344;14.530;2023-02-14T20:15:11;102543.19;;;-1.27;100.00
49055;BME280;35405;52.344;14.530;2023-02-14T20:17:37;102547.88;;;-1.29;100.00
49055;BME280;35405;52.344;14.530;2023-02-14T20:20:02;102535.84;;;-1.33;100.00
49055;BME280;35405;52.344;14.530;2023-02-14T20:22:27;102535.34;;;-1.37;100.00
49055;BME280;35405;52.344;14.530;2023-02-14T20:24:52;102536.16;;;-1.36;100.00
49055;BME280;35405;52.344;14.530;2023-02-14T20:27:18;102536.16;;;-1.36;100.00
49055;BME280;35405;52.344;14.530;2023-02-14T20:29:43;102533.69;;;-1.38;100.00
49055;BME280;35405;52.344;14.530;2023-02-14T20:32:10;102531.34;;;-1.41;100.00
49055;BME280;35405;52.344;14.530;2023-02-14T20:34:35;102523.00;;;-1.46;100.00
49055;BME280;35405;52.344;14.530;2023-02-14T20:37:00;102526.16;;;-1.51;100.00
49055;BME280;35405;52.344;14.530;2023-02-14T20:39:27;102523.00;;;-1.46;100.00
49055;BME280;35405;52.344;14.530;2023-02-14T20:41:52;102519.81;;;-1.42;100.00
49055;BME280;35405;52.344;14.530;2023-02-14T20:44:18;102515.00;;;-1.38;100.00
49055;BME280;35405;52.344;14.530;2023-02-14T20:46:46;102514.34;;;-1.32;100.00
49055;BME280;35405;52.344;14.530;2023-02-14T20:49:13;102504.16;;;-1.28;100.00
49055;BME280;35405;52.344;14.530;2023-02-14T20:51:38;102505.47;;;-1.24;100.00
49055;BME280;35405;52.344;14.530;2023-02-14T20:54:03;102510.66;;;-1.23;100.00
49055;BME280;35405;52.344;14.530;2023-02-14T20:56:28;102507.81;;;-1.21;100.00
49055;BME280;35405;52.344;14.530;2023-02-14T20:58:54;102509.31;;;-1.27;100.00
49055;BME280;35405;52.344;14.530;2023-02-14T21:01:22;102497.97;;;-1.29;100.00
49055;BME280;35405;52.344;14.530;2023-02-14T21:03:48;102498.13;;;-1.30;100.00
49055;BME280;35405;52.344;14.530;2023-02-14T21:06:24;102494.78;;;-1.24;100.00
49055;BME280;35405;52.344;14.530;2023-02-14T21:08:49;102490.31;;;-1.32;100.00
49055;BME280;35405;52.344;14.530;2023-02-14T21:11:15;102488.47;;;-1.40;100.00
49055;BME280;35405;52.344;14.530;2023-02-14T21:13:41;102492.50;;;-1.44;100.00
49055;BME280;35405;52.344;14.530;2023-02-14T21:16:14;102484.81;;;-1.55;100.00
